createdAt,value
2022-08-16T00:00:58.773Z,-108.00
2022-08-16T00:06:05.972Z,-72.00
2022-08-16T00:11:15.705Z,-72.00
2022-08-16T00:17:05.689Z,-108.00
2022-08-16T00:21:28.947Z,-108.00
2022-08-16T00:26:44.935Z,-36.00
2022-08-16T00:31:59.577Z,-72.00
2022-08-16T00:36:49.390Z,-108.00
2022-08-16T00:41:56.601Z,-108.00
2022-08-16T00:47:06.466Z,-108.00
2022-08-16T00:52:29.980Z,-108.00
2022-08-16T00:57:18.341Z,-72.00
2022-08-16T01:02:31.544Z,-108.00
2022-08-16T01:07:50.697Z,-72.00
2022-08-16T01:12:40.044Z,-108.00
2022-08-16T01:17:47.272Z,-108.00
2022-08-16T01:22:57.487Z,-108.00
2022-08-16T01:28:04.816Z,-72.00
2022-08-16T01:33:14.989Z,-108.00
2022-08-16T01:38:20.017Z,-108.00
2022-08-16T01:43:26.943Z,-108.00
2022-08-16T01:48:34.152Z,-72.00
2022-08-16T01:53:41.966Z,-72.00
2022-08-16T01:58:48.650Z,-72.00
2022-08-16T02:03:58.138Z,-108.00
2022-08-16T02:09:05.331Z,-72.00
2022-08-16T02:14:18.471Z,-108.00
2022-08-16T02:19:17.826Z,-72.00
2022-08-16T02:24:31.588Z,-72.00
2022-08-16T02:29:32.315Z,-72.00
2022-08-16T02:34:40.745Z,-72.00
2022-08-16T02:39:46.833Z,-72.00
2022-08-16T02:44:53.969Z,-108.00
2022-08-16T02:50:54.451Z,-72.00
2022-08-16T02:55:08.279Z,-72.00
2022-08-16T03:00:32.110Z,-72.00
2022-08-16T03:05:22.620Z,-72.00
2022-08-16T03:10:33.439Z,-72.00
2022-08-16T03:15:36.913Z,-108.00
2022-08-16T03:20:44.099Z,-72.00
2022-08-16T03:25:51.285Z,-108.00
2022-08-16T03:30:58.443Z,-72.00
2022-08-16T03:36:31.031Z,-72.00
2022-08-16T03:41:24.347Z,-108.00
2022-08-16T03:46:44.329Z,-72.00
2022-08-16T03:51:27.209Z,-72.00
2022-08-16T03:56:34.396Z,-36.00
2022-08-16T04:01:41.724Z,-36.00
2022-08-16T04:06:48.845Z,36.00
2022-08-16T04:11:56.102Z,144.00
2022-08-16T04:17:03.322Z,288.00
2022-08-16T04:22:10.535Z,504.00
2022-08-16T04:27:17.730Z,792.00
2022-08-16T04:32:24.908Z,1260.00
2022-08-16T04:37:32.172Z,1620.00
2022-08-16T04:42:39.410Z,2052.00
2022-08-16T04:47:46.545Z,2412.00
2022-08-16T04:52:55.739Z,2736.00
2022-08-16T04:58:00.883Z,3024.00
2022-08-16T05:03:08.421Z,3600.00
2022-08-16T05:08:29.022Z,3960.00
2022-08-16T05:13:22.834Z,4284.00
2022-08-16T05:18:30.060Z,4608.00
2022-08-16T05:23:37.250Z,4860.00
2022-08-16T05:28:44.540Z,5076.00
2022-08-16T05:33:53.618Z,5292.00
2022-08-16T05:38:59.829Z,5508.00
2022-08-16T05:44:22.613Z,5688.00
2022-08-16T05:49:14.612Z,5832.00
2022-08-16T05:54:24.958Z,6048.00
2022-08-16T05:59:30.693Z,6192.00
2022-08-16T06:04:37.990Z,6372.00
2022-08-16T06:09:45.246Z,6480.00
2022-08-16T06:14:52.434Z,6624.00
2022-08-16T06:19:59.697Z,6732.00
2022-08-16T06:25:06.985Z,6840.00
2022-08-16T06:30:19.808Z,6984.00
2022-08-16T06:35:21.545Z,7272.00
2022-08-16T06:40:33.499Z,7452.00
2022-08-16T06:45:35.971Z,7524.00
2022-08-16T06:50:43.199Z,7632.00
2022-08-16T06:55:53.813Z,7704.00
2022-08-16T07:00:58.113Z,7776.00
2022-08-16T07:06:04.770Z,7596.00
2022-08-16T07:11:11.945Z,7632.00
2022-08-16T07:16:20.477Z,7740.00
2022-08-16T07:21:26.365Z,7812.00
2022-08-16T07:26:33.553Z,7848.00
2022-08-16T07:31:40.800Z,7812.00
2022-08-16T07:36:57.778Z,7812.00
2022-08-16T07:41:55.288Z,7992.00
2022-08-16T07:47:02.441Z,8064.00
2022-08-16T07:52:18.924Z,8208.00
2022-08-16T07:57:18.903Z,8136.00
2022-08-16T08:02:23.982Z,8352.00
2022-08-16T08:07:32.506Z,8496.00
2022-08-16T08:12:38.458Z,8460.00
2022-08-16T08:17:45.669Z,8532.00
2022-08-16T08:22:52.838Z,8568.00
2022-08-16T08:28:00.070Z,8604.00
2022-08-16T08:33:07.578Z,8424.00
2022-08-16T08:38:14.475Z,8388.00
2022-08-16T08:43:21.753Z,8388.00
2022-08-16T08:48:32.766Z,8532.00
2022-08-16T08:53:36.261Z,8388.00
2022-08-16T08:58:54.678Z,8460.00
2022-08-16T09:03:50.830Z,8460.00
2022-08-16T09:08:58.207Z,8460.00
2022-08-16T09:14:05.433Z,8676.00
2022-08-16T09:19:12.753Z,8244.00
2022-08-16T09:24:46.883Z,8496.00
2022-08-16T09:29:44.978Z,8460.00
2022-08-16T09:34:34.627Z,8460.00
2022-08-16T09:39:43.388Z,8496.00
2022-08-16T09:45:09.668Z,8388.00
2022-08-16T09:49:56.403Z,8424.00
2022-08-16T09:55:03.578Z,8136.00
2022-08-16T10:00:42.163Z,8352.00
2022-08-16T10:05:18.021Z,8316.00
2022-08-16T10:10:30.975Z,8316.00
2022-08-16T10:15:32.424Z,8280.00
2022-08-16T10:20:39.672Z,8208.00
2022-08-16T10:27:18.290Z,8172.00
2022-08-16T10:30:56.647Z,8136.00
2022-08-16T10:36:03.926Z,8100.00
2022-08-16T10:41:08.513Z,8064.00
2022-08-16T10:46:40.149Z,8064.00
2022-08-16T10:51:34.238Z,7776.00
2022-08-16T10:56:55.254Z,7740.00
2022-08-16T11:01:40.114Z,8100.00
2022-08-16T11:07:06.549Z,8100.00
2022-08-16T11:12:14.460Z,7956.00
2022-08-16T11:17:02.933Z,8100.00
2022-08-16T11:22:22.901Z,8064.00
2022-08-16T11:27:20.582Z,8064.00
2022-08-16T11:32:29.819Z,8064.00
2022-08-16T11:38:04.626Z,8028.00
2022-08-16T11:42:37.731Z,7632.00
2022-08-16T11:47:43.804Z,7596.00
2022-08-16T11:52:51.159Z,7632.00
2022-08-16T11:57:58.364Z,8064.00
2022-08-16T12:03:05.597Z,7992.00
2022-08-16T12:08:12.830Z,8028.00
2022-08-16T12:13:20.064Z,7992.00
2022-08-16T12:18:27.359Z,7920.00
2022-08-16T12:23:34.627Z,7668.00
2022-08-16T12:28:54.719Z,7848.00
2022-08-16T12:33:49.283Z,7812.00
2022-08-16T12:38:56.532Z,7812.00
2022-08-16T12:44:03.712Z,7704.00
2022-08-16T12:49:10.912Z,7632.00
2022-08-16T12:54:18.162Z,7632.00
2022-08-16T12:59:25.441Z,7560.00
2022-08-16T13:04:33.392Z,7524.00
2022-08-16T13:09:42.295Z,7416.00
2022-08-16T13:14:47.111Z,7380.00
2022-08-16T13:20:11.181Z,7488.00
2022-08-16T13:25:02.266Z,7380.00
2022-08-16T13:30:22.157Z,7344.00
2022-08-16T13:35:16.681Z,7272.00
2022-08-16T13:40:23.944Z,7272.00
2022-08-16T13:45:33.165Z,7200.00
2022-08-16T13:50:51.843Z,6732.00
2022-08-16T13:55:58.813Z,6732.00
2022-08-16T14:00:56.693Z,6660.00
2022-08-16T14:06:03.874Z,6660.00
2022-08-16T14:11:11.742Z,14184.00
2022-08-16T14:16:24.272Z,14328.00
2022-08-16T14:21:25.487Z,18756.00
2022-08-16T14:26:32.910Z,14364.00
2022-08-16T14:31:40.926Z,14328.00
2022-08-16T14:36:47.303Z,14436.00
2022-08-16T14:41:55.872Z,14436.00
2022-08-16T14:47:01.721Z,14724.00
2022-08-16T14:52:09.316Z,15336.00
2022-08-16T14:57:16.560Z,15696.00
2022-08-16T15:02:33.897Z,16200.00
2022-08-16T15:07:35.034Z,16560.00
2022-08-16T15:12:38.167Z,16920.00
2022-08-16T15:17:53.804Z,17244.00
2022-08-16T15:22:52.541Z,17532.00
2022-08-16T15:27:59.900Z,17712.00
2022-08-16T15:33:07.126Z,17820.00
2022-08-16T15:38:55.323Z,17784.00
2022-08-16T15:43:21.904Z,17712.00
2022-08-16T15:48:29.383Z,17676.00
2022-08-16T15:53:37.666Z,17784.00
2022-08-16T15:58:43.542Z,17892.00
2022-08-16T16:03:50.710Z,18000.00
2022-08-16T16:08:57.923Z,18072.00
2022-08-16T16:14:06.235Z,17928.00
2022-08-16T16:19:12.369Z,17964.00
2022-08-16T16:24:21.380Z,17784.00
2022-08-16T16:29:27.277Z,17604.00
2022-08-16T16:34:35.440Z,17388.00
2022-08-16T16:39:41.705Z,17388.00
2022-08-16T16:44:50.892Z,17028.00
2022-08-16T16:49:56.096Z,17064.00
2022-08-16T16:55:03.398Z,16848.00
2022-08-16T17:00:25.946Z,16596.00
2022-08-16T17:05:17.934Z,16380.00
2022-08-16T17:10:45.933Z,16344.00
2022-08-16T17:15:36.344Z,15840.00
2022-08-16T17:20:40.217Z,15480.00
2022-08-16T17:25:52.228Z,15156.00
2022-08-16T17:30:54.608Z,14544.00
2022-08-16T17:36:01.802Z,13788.00
2022-08-16T17:41:09.031Z,12708.00
2022-08-16T17:46:50.668Z,11340.00
2022-08-16T17:51:23.365Z,10584.00
2022-08-16T17:56:30.623Z,9360.00
2022-08-16T18:01:37.934Z,7920.00
2022-08-16T18:06:45.028Z,6480.00
2022-08-16T18:11:54.869Z,5652.00
2022-08-16T18:16:59.481Z,4752.00
2022-08-16T18:22:06.691Z,2448.00
2022-08-16T18:27:25.965Z,1656.00
2022-08-16T18:32:24.444Z,1152.00
2022-08-16T18:37:28.473Z,684.00
2022-08-16T18:42:35.705Z,396.00
2022-08-16T18:47:42.901Z,252.00
2022-08-16T18:52:50.324Z,108.00
2022-08-16T18:57:57.300Z,-72.00
2022-08-16T19:03:04.605Z,-72.00
2022-08-16T19:08:11.886Z,9396.00
2022-08-16T19:13:19.125Z,9180.00
2022-08-16T19:18:26.440Z,9108.00
2022-08-16T19:23:33.692Z,9180.00
2022-08-16T19:28:51.138Z,9288.00
2022-08-16T19:33:54.145Z,9252.00
2022-08-16T19:38:56.045Z,9288.00
2022-08-16T19:44:03.327Z,9000.00
2022-08-16T19:49:15.831Z,8892.00
2022-08-16T19:54:18.615Z,8928.00
2022-08-16T19:59:39.947Z,9000.00
2022-08-16T20:04:33.945Z,9072.00
2022-08-16T20:09:42.999Z,9072.00
2022-08-16T20:14:50.376Z,9324.00
2022-08-16T20:19:57.686Z,9432.00
2022-08-16T20:25:04.937Z,9396.00
2022-08-16T20:30:12.163Z,9432.00
2022-08-16T20:35:19.441Z,9288.00
2022-08-16T20:40:34.801Z,9360.00
2022-08-16T20:45:34.021Z,9396.00
2022-08-16T20:50:41.252Z,9252.00
2022-08-16T20:55:48.428Z,9288.00
2022-08-16T21:00:55.662Z,9288.00
2022-08-16T21:06:02.798Z,9000.00
2022-08-16T21:11:09.984Z,9180.00
2022-08-16T21:16:17.190Z,9144.00
2022-08-16T21:21:24.401Z,9144.00
2022-08-16T21:26:31.599Z,9252.00
2022-08-16T21:31:38.799Z,9144.00
2022-08-16T21:36:45.961Z,9216.00
2022-08-16T21:41:53.152Z,9144.00
2022-08-16T21:47:00.457Z,8568.00
2022-08-16T21:52:07.636Z,8856.00
2022-08-16T21:57:14.829Z,8820.00
2022-08-16T22:02:22.063Z,8784.00
2022-08-16T22:07:29.386Z,8784.00
2022-08-16T22:12:36.508Z,8712.00
2022-08-16T22:17:43.880Z,8640.00
2022-08-16T22:22:51.275Z,8784.00
2022-08-16T22:27:58.156Z,8676.00
2022-08-16T22:33:05.434Z,8748.00
2022-08-16T22:38:53.456Z,8748.00
2022-08-16T22:43:19.800Z,8676.00
2022-08-16T22:48:26.963Z,8784.00
2022-08-16T22:53:34.195Z,8784.00
2022-08-16T22:58:41.490Z,8748.00
2022-08-16T23:03:48.701Z,8820.00
2022-08-16T23:08:55.944Z,8892.00
2022-08-16T23:14:03.388Z,8820.00
2022-08-16T23:19:10.617Z,8748.00
2022-08-16T23:24:17.812Z,8820.00
2022-08-16T23:29:26.565Z,8856.00
2022-08-16T23:34:32.201Z,8820.00
2022-08-16T23:39:39.517Z,8784.00
2022-08-16T23:44:58.092Z,8820.00
2022-08-16T23:50:00.527Z,8928.00
2022-08-16T23:55:01.041Z,8820.00
